This is the latest recevied weather packets stored in our database for station/object IU1DOF-3. If no packets are shown the sender has not sent any weather packets the latest 10 day(s).
| Time | Temp. | Humidity | Pressure | Rain* | Wind** | Luminosity | Snow |
|---|---|---|---|---|---|---|---|
| 1777954780 | 6.11° C | 99% | 1011.5 hPa | 0 mm | - | - | - |
| 1777954157 | 6.11° C | 99% | 1011.8 hPa | 0 mm | - | - | - |
| 1777953532 | 6.11° C | 99% | 1012.1 hPa | 0 mm | - | - | - |
| 1777952921 | 6.11° C | 99% | 1012 hPa | 1.02 mm | - | - | - |
| 1777952300 | 6.11° C | 99% | 1012 hPa | 0 mm | - | - | - |
| 1777951676 | 6.11° C | 99% | 1012.3 hPa | 1.78 mm | - | - | - |
| 1777951060 | 7.22° C | 99% | 1012.5 hPa | 2.79 mm | - | - | - |
| 1777950445 | 7.22° C | 99% | 1012.4 hPa | 8.89 mm | - | - | - |
| 1777949821 | 7.78° C | 99% | 1012.2 hPa | 19.81 mm | - | - | - |
| 1777949200 | 7.78° C | 99% | 1012.8 hPa | 13.72 mm | - | - | - |
| 1777948588 | 8.33° C | 99% | 1013 hPa | 7.62 mm | - | - | - |
| 1777947964 | 8.33° C | 99% | 1012.9 hPa | 7.62 mm | - | - | - |
| 1777947343 | 8.33° C | 99% | 1012.9 hPa | 5.84 mm | - | - | - |
| 1777946732 | 8.33° C | 99% | 1012.9 hPa | 6.6 mm | - | - | - |
| 1777946124 | 8.33° C | 99% | 1012.9 hPa | 2.79 mm | - | - | - |
| 1777945500 | 8.33° C | 99% | 1012.9 hPa | 1.02 mm | - | - | - |
| 1777944876 | 8.33° C | 99% | 1012.8 hPa | 1.78 mm | - | - | - |
| 1777944252 | 8.33° C | 99% | 1012.9 hPa | 2.79 mm | - | - | - |
| 1777943645 | 8.33° C | 99% | 1012.9 hPa | 5.84 mm | - | - | - |
| 1777943037 | 8.33° C | 99% | 1013.1 hPa | 4.57 mm | - | - | - |
| 1777942413 | 8.33° C | 99% | 1013.2 hPa | 2.79 mm | - | - | - |
| 1777941804 | 8.33° C | 99% | 1013.4 hPa | 2.79 mm | - | - | - |
| 1777941196 | 8.33° C | 99% | 1013.3 hPa | 1.02 mm | - | - | - |
| 1777940588 | 8.33° C | 99% | 1013.3 hPa | 1.78 mm | - | - | - |
| 1777939980 | 8.33° C | 99% | 1013.5 hPa | 1.78 mm | - | - | - |
* Rain latest hour (hover to see other rain measurements)
** Current wind speed in m/s (hover to see current wind gust speed)